sensor_id;sensor_type;location;lat;lon;timestamp;pressure;altitude;pressure_sealevel;temperature;humidity
28306;BME280;7516;43.570;1.448;2022-09-28T00:01:55;99142.31;;;15.21;100.00
28306;BME280;7516;43.570;1.448;2022-09-28T00:04:24;99144.88;;;15.28;100.00
28306;BME280;7516;43.570;1.448;2022-09-28T00:06:51;99139.59;;;15.28;100.00
28306;BME280;7516;43.570;1.448;2022-09-28T00:09:19;99130.66;;;15.29;100.00
28306;BME280;7516;43.570;1.448;2022-09-28T00:11:46;99117.66;;;15.27;100.00
28306;BME280;7516;43.570;1.448;2022-09-28T00:14:14;99114.81;;;15.29;100.00
28306;BME280;7516;43.570;1.448;2022-09-28T00:16:42;99115.84;;;15.28;100.00
28306;BME280;7516;43.570;1.448;2022-09-28T00:19:11;99111.72;;;15.32;100.00
28306;BME280;7516;43.570;1.448;2022-09-28T00:21:40;99111.94;;;15.30;100.00
28306;BME280;7516;43.570;1.448;2022-09-28T00:24:12;99109.88;;;15.32;100.00
28306;BME280;7516;43.570;1.448;2022-09-28T00:26:44;99099.13;;;15.34;100.00
28306;BME280;7516;43.570;1.448;2022-09-28T00:29:20;99101.13;;;15.38;100.00
28306;BME280;7516;43.570;1.448;2022-09-28T00:31:51;99106.16;;;15.40;100.00
28306;BME280;7516;43.570;1.448;2022-09-28T00:34:22;99101.94;;;15.39;100.00
28306;BME280;7516;43.570;1.448;2022-09-28T00:36:50;99099.84;;;15.41;100.00
28306;BME280;7516;43.570;1.448;2022-09-28T00:39:18;99101.63;;;15.29;100.00
28306;BME280;7516;43.570;1.448;2022-09-28T00:41:46;99093.97;;;15.21;100.00
28306;BME280;7516;43.570;1.448;2022-09-28T00:44:42;99090.28;;;15.22;100.00
28306;BME280;7516;43.570;1.448;2022-09-28T00:50:11;99093.31;;;15.25;100.00
28306;BME280;7516;43.570;1.448;2022-09-28T00:52:46;99081.66;;;15.33;100.00
28306;BME280;7516;43.570;1.448;2022-09-28T00:55:29;99094.06;;;15.32;100.00
28306;BME280;7516;43.570;1.448;2022-09-28T00:57:59;99096.06;;;15.37;100.00
28306;BME280;7516;43.570;1.448;2022-09-28T01:00:28;99082.69;;;15.32;100.00
28306;BME280;7516;43.570;1.448;2022-09-28T01:02:58;99073.22;;;15.24;100.00
28306;BME280;7516;43.570;1.448;2022-09-28T01:05:26;99075.22;;;15.29;100.00
28306;BME280;7516;43.570;1.448;2022-09-28T01:07:56;99070.34;;;15.26;100.00
28306;BME280;7516;43.570;1.448;2022-09-28T01:10:23;99065.22;;;15.31;100.00
28306;BME280;7516;43.570;1.448;2022-09-28T01:12:51;99069.69;;;15.30;100.00
28306;BME280;7516;43.570;1.448;2022-09-28T01:15:20;99070.56;;;15.24;100.00
28306;BME280;7516;43.570;1.448;2022-09-28T01:17:59;99055.97;;;15.22;100.00
28306;BME280;7516;43.570;1.448;2022-09-28T01:23:42;99062.44;;;15.26;100.00
28306;BME280;7516;43.570;1.448;2022-09-28T01:26:45;99057.16;;;15.26;100.00
28306;BME280;7516;43.570;1.448;2022-09-28T01:29:18;99053.50;;;15.27;100.00
28306;BME280;7516;43.570;1.448;2022-09-28T01:31:53;99055.13;;;15.28;100.00
28306;BME280;7516;43.570;1.448;2022-09-28T01:34:27;99044.97;;;15.25;100.00
28306;BME280;7516;43.570;1.448;2022-09-28T01:36:57;99035.63;;;15.29;100.00
28306;BME280;7516;43.570;1.448;2022-09-28T01:39:31;99049.16;;;15.32;100.00
28306;BME280;7516;43.570;1.448;2022-09-28T01:42:04;99042.88;;;15.33;100.00
28306;BME280;7516;43.570;1.448;2022-09-28T01:44:37;99033.72;;;15.36;100.00
28306;BME280;7516;43.570;1.448;2022-09-28T01:47:10;99034.13;;;15.33;100.00
28306;BME280;7516;43.570;1.448;2022-09-28T01:49:42;99021.44;;;15.41;100.00
28306;BME280;7516;43.570;1.448;2022-09-28T01:52:16;99022.72;;;15.39;100.00
28306;BME280;7516;43.570;1.448;2022-09-28T01:54:50;99023.78;;;15.31;100.00
28306;BME280;7516;43.570;1.448;2022-09-28T01:57:23;99017.28;;;15.34;100.00
28306;BME280;7516;43.570;1.448;2022-09-28T01:59:58;99012.06;;;15.27;100.00
28306;BME280;7516;43.570;1.448;2022-09-28T02:02:31;99004.44;;;15.19;100.00
28306;BME280;7516;43.570;1.448;2022-09-28T02:05:04;98994.22;;;15.23;100.00
28306;BME280;7516;43.570;1.448;2022-09-28T02:07:37;99018.59;;;15.25;100.00
28306;BME280;7516;43.570;1.448;2022-09-28T02:10:09;99018.22;;;15.21;100.00
28306;BME280;7516;43.570;1.448;2022-09-28T02:12:42;99018.59;;;15.25;100.00
28306;BME280;7516;43.570;1.448;2022-09-28T02:15:16;99009.22;;;15.29;100.00
28306;BME280;7516;43.570;1.448;2022-09-28T02:17:45;99000.31;;;15.23;100.00
28306;BME280;7516;43.570;1.448;2022-09-28T02:20:14;98996.22;;;15.27;100.00
28306;BME280;7516;43.570;1.448;2022-09-28T02:22:46;98995.78;;;15.30;100.00
28306;BME280;7516;43.570;1.448;2022-09-28T02:25:22;98996.97;;;15.34;100.00
28306;BME280;7516;43.570;1.448;2022-09-28T02:27:55;98996.75;;;15.36;100.00
28306;BME280;7516;43.570;1.448;2022-09-28T02:30:24;98993.72;;;15.32;100.00
28306;BME280;7516;43.570;1.448;2022-09-28T02:32:54;98995.34;;;15.33;100.00
28306;BME280;7516;43.570;1.448;2022-09-28T02:35:23;98978.47;;;15.34;100.00
28306;BME280;7516;43.570;1.448;2022-09-28T02:37:51;98979.28;;;15.35;100.00
28306;BME280;7516;43.570;1.448;2022-09-28T02:40:20;98977.44;;;15.35;100.00
28306;BME280;7516;43.570;1.448;2022-09-28T02:42:59;98966.88;;;15.35;100.00
28306;BME280;7516;43.570;1.448;2022-09-28T02:45:42;98979.72;;;15.32;100.00
28306;BME280;7516;43.570;1.448;2022-09-28T02:48:20;98972.38;;;15.34;100.00
28306;BME280;7516;43.570;1.448;2022-09-28T02:51:02;98968.50;;;15.36;100.00
28306;BME280;7516;43.570;1.448;2022-09-28T02:54:03;98975.84;;;15.34;100.00
28306;BME280;7516;43.570;1.448;2022-09-28T02:56:46;98962.41;;;15.36;100.00
28306;BME280;7516;43.570;1.448;2022-09-28T02:59:37;98965.88;;;15.36;100.00
28306;BME280;7516;43.570;1.448;2022-09-28T03:02:12;98965.78;;;15.43;100.00
28306;BME280;7516;43.570;1.448;2022-09-28T03:04:51;98959.91;;;15.41;100.00
28306;BME280;7516;43.570;1.448;2022-09-28T03:07:25;98956.84;;;15.44;100.00
28306;BME280;7516;43.570;1.448;2022-09-28T03:10:00;98952.66;;;15.36;100.00
28306;BME280;7516;43.570;1.448;2022-09-28T03:12:29;98947.53;;;15.23;100.00
28306;BME280;7516;43.570;1.448;2022-09-28T03:15:11;98947.81;;;15.15;100.00
28306;BME280;7516;43.570;1.448;2022-09-28T03:17:39;98942.31;;;15.17;100.00
28306;BME280;7516;43.570;1.448;2022-09-28T03:20:09;98949.59;;;15.21;100.00
28306;BME280;7516;43.570;1.448;2022-09-28T03:22:37;98954.06;;;15.21;100.00
28306;BME280;7516;43.570;1.448;2022-09-28T03:25:05;98956.25;;;15.24;100.00
28306;BME280;7516;43.570;1.448;2022-09-28T03:27:33;98941.81;;;15.26;100.00
28306;BME280;7516;43.570;1.448;2022-09-28T03:30:01;98940.19;;;15.25;100.00
28306;BME280;7516;43.570;1.448;2022-09-28T03:32:30;98941.00;;;15.26;100.00
28306;BME280;7516;43.570;1.448;2022-09-28T03:34:58;98945.84;;;15.29;100.00
28306;BME280;7516;43.570;1.448;2022-09-28T03:37:26;98942.75;;;15.32;100.00
28306;BME280;7516;43.570;1.448;2022-09-28T03:39:53;98945.97;;;15.34;100.00
28306;BME280;7516;43.570;1.448;2022-09-28T03:42:21;98952.88;;;15.35;100.00
28306;BME280;7516;43.570;1.448;2022-09-28T03:44:48;98945.19;;;15.33;100.00
28306;BME280;7516;43.570;1.448;2022-09-28T03:47:16;98947.38;;;15.36;100.00
28306;BME280;7516;43.570;1.448;2022-09-28T03:49:45;98945.91;;;15.40;100.00
28306;BME280;7516;43.570;1.448;2022-09-28T03:52:13;98951.13;;;15.47;100.00
28306;BME280;7516;43.570;1.448;2022-09-28T03:54:41;98952.13;;;15.46;100.00
28306;BME280;7516;43.570;1.448;2022-09-28T03:57:08;98953.75;;;15.47;100.00
28306;BME280;7516;43.570;1.448;2022-09-28T03:59:35;98952.69;;;15.48;100.00
28306;BME280;7516;43.570;1.448;2022-09-28T04:02:04;98954.91;;;15.51;100.00
28306;BME280;7516;43.570;1.448;2022-09-28T04:04:32;98974.00;;;15.53;100.00
28306;BME280;7516;43.570;1.448;2022-09-28T04:07:01;98962.44;;;15.54;100.00
28306;BME280;7516;43.570;1.448;2022-09-28T04:09:28;98957.75;;;15.56;100.00
28306;BME280;7516;43.570;1.448;2022-09-28T04:11:55;98955.66;;;15.58;100.00
28306;BME280;7516;43.570;1.448;2022-09-28T04:14:23;98954.63;;;15.59;100.00
28306;BME280;7516;43.570;1.448;2022-09-28T04:16:50;98959.47;;;15.62;100.00
28306;BME280;7516;43.570;1.448;2022-09-28T04:19:20;98955.44;;;15.60;100.00
28306;BME280;7516;43.570;1.448;2022-09-28T04:21:48;98966.00;;;15.60;100.00
28306;BME280;7516;43.570;1.448;2022-09-28T04:24:18;98950.97;;;15.60;100.00
28306;BME280;7516;43.570;1.448;2022-09-28T04:26:46;98959.03;;;15.65;100.00
28306;BME280;7516;43.570;1.448;2022-09-28T04:29:14;98959.47;;;15.62;100.00
28306;BME280;7516;43.570;1.448;2022-09-28T04:31:42;98967.19;;;15.64;100.00
28306;BME280;7516;43.570;1.448;2022-09-28T04:34:11;98963.06;;;15.68;100.00
28306;BME280;7516;43.570;1.448;2022-09-28T04:36:40;98961.69;;;15.65;100.00
28306;BME280;7516;43.570;1.448;2022-09-28T04:39:07;98965.78;;;15.61;100.00
28306;BME280;7516;43.570;1.448;2022-09-28T04:41:36;98960.38;;;15.56;100.00
28306;BME280;7516;43.570;1.448;2022-09-28T04:44:04;98977.81;;;15.57;100.00
28306;BME280;7516;43.570;1.448;2022-09-28T04:46:31;98964.25;;;15.54;100.00
28306;BME280;7516;43.570;1.448;2022-09-28T04:48:59;98971.97;;;15.55;100.00
28306;BME280;7516;43.570;1.448;2022-09-28T04:51:30;98961.09;;;15.45;100.00
28306;BME280;7516;43.570;1.448;2022-09-28T04:53:57;98960.63;;;15.48;100.00
28306;BME280;7516;43.570;1.448;2022-09-28T04:56:25;98964.53;;;15.46;100.00
28306;BME280;7516;43.570;1.448;2022-09-28T04:58:54;98957.84;;;15.43;100.00
28306;BME280;7516;43.570;1.448;2022-09-28T05:01:21;98956.72;;;15.39;100.00
28306;BME280;7516;43.570;1.448;2022-09-28T05:03:49;98955.91;;;15.38;100.00
28306;BME280;7516;43.570;1.448;2022-09-28T05:06:17;98946.16;;;15.39;100.00
28306;BME280;7516;43.570;1.448;2022-09-28T05:08:44;98941.63;;;15.39;100.00
28306;BME280;7516;43.570;1.448;2022-09-28T05:11:13;98943.72;;;15.37;100.00
28306;BME280;7516;43.570;1.448;2022-09-28T05:13:42;98931.53;;;15.36;100.00
28306;BME280;7516;43.570;1.448;2022-09-28T05:16:13;98939.31;;;15.31;100.00
28306;BME280;7516;43.570;1.448;2022-09-28T05:18:41;98933.09;;;15.26;100.00
28306;BME280;7516;43.570;1.448;2022-09-28T05:21:10;98927.00;;;15.25;100.00
28306;BME280;7516;43.570;1.448;2022-09-28T05:23:38;98922.75;;;15.24;100.00
28306;BME280;7516;43.570;1.448;2022-09-28T05:26:06;98924.94;;;15.27;100.00
28306;BME280;7516;43.570;1.448;2022-09-28T05:28:33;98922.66;;;15.31;100.00
28306;BME280;7516;43.570;1.448;2022-09-28T05:31:02;98923.84;;;15.35;100.00
28306;BME280;7516;43.570;1.448;2022-09-28T05:33:32;98918.56;;;15.35;100.00
28306;BME280;7516;43.570;1.448;2022-09-28T05:36:00;98917.53;;;15.36;100.00
28306;BME280;7516;43.570;1.448;2022-09-28T05:38:28;98916.41;;;15.43;100.00
28306;BME280;7516;43.570;1.448;2022-09-28T05:40:56;98915.16;;;15.46;100.00
28306;BME280;7516;43.570;1.448;2022-09-28T05:43:23;98917.22;;;15.44;100.00
28306;BME280;7516;43.570;1.448;2022-09-28T05:45:51;98909.31;;;15.44;100.00
28306;BME280;7516;43.570;1.448;2022-09-28T05:48:18;98915.16;;;15.46;100.00
28306;BME280;7516;43.570;1.448;2022-09-28T05:50:51;98916.31;;;15.50;100.00
28306;BME280;7516;43.570;1.448;2022-09-28T05:53:19;98921.31;;;15.40;100.00
28306;BME280;7516;43.570;1.448;2022-09-28T05:55:47;98917.09;;;15.39;100.00
28306;BME280;7516;43.570;1.448;2022-09-28T05:58:15;98915.25;;;15.39;100.00
28306;BME280;7516;43.570;1.448;2022-09-28T06:00:43;98911.34;;;15.42;100.00
28306;BME280;7516;43.570;1.448;2022-09-28T06:03:13;98913.69;;;15.50;100.00
28306;BME280;7516;43.570;1.448;2022-09-28T06:05:40;98906.44;;;15.46;100.00
28306;BME280;7516;43.570;1.448;2022-09-28T06:08:09;98912.88;;;15.50;100.00
28306;BME280;7516;43.570;1.448;2022-09-28T06:10:37;98908.41;;;15.50;100.00
28306;BME280;7516;43.570;1.448;2022-09-28T06:13:06;98914.28;;;15.52;100.00
28306;BME280;7516;43.570;1.448;2022-09-28T06:15:35;98917.53;;;15.54;100.00
28306;BME280;7516;43.570;1.448;2022-09-28T06:18:05;98913.06;;;15.55;100.00
28306;BME280;7516;43.570;1.448;2022-09-28T06:20:37;98911.78;;;15.57;100.00
28306;BME280;7516;43.570;1.448;2022-09-28T06:23:06;98916.53;;;15.67;100.00
28306;BME280;7516;43.570;1.448;2022-09-28T06:25:35;98912.88;;;15.68;100.00
28306;BME280;7516;43.570;1.448;2022-09-28T06:28:04;98914.03;;;15.72;100.00
28306;BME280;7516;43.570;1.448;2022-09-28T06:30:34;98916.47;;;15.73;100.00
28306;BME280;7516;43.570;1.448;2022-09-28T06:33:05;98926.56;;;15.76;100.00
28306;BME280;7516;43.570;1.448;2022-09-28T06:35:33;98911.19;;;15.73;100.00
28306;BME280;7516;43.570;1.448;2022-09-28T06:38:01;98918.63;;;15.65;100.00
28306;BME280;7516;43.570;1.448;2022-09-28T06:40:29;98916.78;;;15.65;100.00
28306;BME280;7516;43.570;1.448;2022-09-28T06:42:59;98919.97;;;15.67;100.00
28306;BME280;7516;43.570;1.448;2022-09-28T06:45:28;98910.00;;;15.69;100.00
28306;BME280;7516;43.570;1.448;2022-09-28T06:47:56;98907.94;;;15.71;100.00
28306;BME280;7516;43.570;1.448;2022-09-28T06:50:25;98900.03;;;15.71;100.00
28306;BME280;7516;43.570;1.448;2022-09-28T06:52:53;98908.06;;;15.76;100.00
28306;BME280;7516;43.570;1.448;2022-09-28T06:55:22;98904.97;;;15.79;100.00
28306;BME280;7516;43.570;1.448;2022-09-28T06:57:58;98895.22;;;15.80;100.00
28306;BME280;7516;43.570;1.448;2022-09-28T07:00:26;98890.63;;;15.87;100.00
28306;BME280;7516;43.570;1.448;2022-09-28T07:02:54;98894.66;;;15.90;100.00
28306;BME280;7516;43.570;1.448;2022-09-28T07:05:21;98906.84;;;15.91;100.00
28306;BME280;7516;43.570;1.448;2022-09-28T07:07:53;98904.22;;;15.91;100.00
28306;BME280;7516;43.570;1.448;2022-09-28T07:10:21;98902.13;;;15.93;100.00
28306;BME280;7516;43.570;1.448;2022-09-28T07:12:49;98897.66;;;15.93;100.00
28306;BME280;7516;43.570;1.448;2022-09-28T07:15:19;98897.44;;;15.95;100.00
28306;BME280;7516;43.570;1.448;2022-09-28T07:17:47;98903.66;;;16.00;100.00
28306;BME280;7516;43.570;1.448;2022-09-28T07:20:15;98913.97;;;16.02;100.00
28306;BME280;7516;43.570;1.448;2022-09-28T07:22:42;98900.22;;;16.00;100.00
28306;BME280;7516;43.570;1.448;2022-09-28T07:25:10;98902.59;;;16.01;100.00
28306;BME280;7516;43.570;1.448;2022-09-28T07:27:39;98908.69;;;16.02;100.00
28306;BME280;7516;43.570;1.448;2022-09-28T07:30:07;98898.84;;;16.09;100.00
28306;BME280;7516;43.570;1.448;2022-09-28T07:32:36;98897.34;;;16.13;100.00
28306;BME280;7516;43.570;1.448;2022-09-28T07:35:05;98894.50;;;16.26;100.00
28306;BME280;7516;43.570;1.448;2022-09-28T07:37:34;98899.56;;;16.39;100.00
28306;BME280;7516;43.570;1.448;2022-09-28T07:40:02;98898.97;;;16.37;100.00
28306;BME280;7516;43.570;1.448;2022-09-28T07:42:47;98907.03;;;16.42;100.00
28306;BME280;7516;43.570;1.448;2022-09-28T07:45:15;98901.06;;;16.35;100.00
28306;BME280;7516;43.570;1.448;2022-09-28T07:47:47;98896.66;;;16.29;100.00
28306;BME280;7516;43.570;1.448;2022-09-28T07:50:14;98901.38;;;16.27;100.00
28306;BME280;7516;43.570;1.448;2022-09-28T07:52:43;98887.47;;;16.32;100.00
28306;BME280;7516;43.570;1.448;2022-09-28T07:55:11;98898.06;;;16.43;100.00
28306;BME280;7516;43.570;1.448;2022-09-28T07:57:38;98904.06;;;16.50;100.00
28306;BME280;7516;43.570;1.448;2022-09-28T08:00:06;98900.63;;;16.62;100.00
28306;BME280;7516;43.570;1.448;2022-09-28T08:02:34;98889.13;;;16.68;100.00
28306;BME280;7516;43.570;1.448;2022-09-28T08:05:05;98873.69;;;16.65;100.00
28306;BME280;7516;43.570;1.448;2022-09-28T08:07:35;98880.00;;;16.64;100.00
28306;BME280;7516;43.570;1.448;2022-09-28T08:10:04;98869.44;;;16.64;100.00
28306;BME280;7516;43.570;1.448;2022-09-28T08:12:32;98872.88;;;16.64;100.00
28306;BME280;7516;43.570;1.448;2022-09-28T08:15:01;98879.13;;;16.70;100.00
28306;BME280;7516;43.570;1.448;2022-09-28T08:17:29;98891.41;;;16.87;100.00
28306;BME280;7516;43.570;1.448;2022-09-28T08:19:57;98886.19;;;17.04;100.00
28306;BME280;7516;43.570;1.448;2022-09-28T08:22:43;98890.91;;;17.02;100.00
28306;BME280;7516;43.570;1.448;2022-09-28T08:25:11;98896.78;;;17.04;100.00
28306;BME280;7516;43.570;1.448;2022-09-28T08:27:38;98900.31;;;17.10;100.00
28306;BME280;7516;43.570;1.448;2022-09-28T08:30:07;98899.06;;;17.12;99.81
28306;BME280;7516;43.570;1.448;2022-09-28T08:32:34;98897.28;;;17.18;98.81
28306;BME280;7516;43.570;1.448;2022-09-28T08:35:02;98916.63;;;17.18;97.80
28306;BME280;7516;43.570;1.448;2022-09-28T08:37:30;98900.88;;;17.23;97.48
28306;BME280;7516;43.570;1.448;2022-09-28T08:39:58;98907.28;;;17.27;98.42
28306;BME280;7516;43.570;1.448;2022-09-28T08:42:31;98915.47;;;17.26;96.04
28306;BME280;7516;43.570;1.448;2022-09-28T08:45:06;98911.09;;;17.32;93.65
28306;BME280;7516;43.570;1.448;2022-09-28T08:47:38;98910.22;;;17.43;92.28
28306;BME280;7516;43.570;1.448;2022-09-28T08:50:30;98905.63;;;17.50;92.12
28306;BME280;7516;43.570;1.448;2022-09-28T08:53:03;98903.72;;;17.62;92.87
28306;BME280;7516;43.570;1.448;2022-09-28T08:55:36;98905.19;;;17.70;92.44
28306;BME280;7516;43.570;1.448;2022-09-28T08:58:10;98905.06;;;17.76;92.50
28306;BME280;7516;43.570;1.448;2022-09-28T09:00:44;98899.19;;;17.74;92.60
28306;BME280;7516;43.570;1.448;2022-09-28T09:03:15;98900.69;;;17.70;91.58
28306;BME280;7516;43.570;1.448;2022-09-28T09:05:50;98905.53;;;17.73;91.45
28306;BME280;7516;43.570;1.448;2022-09-28T09:08:33;98910.38;;;17.76;91.07
28306;BME280;7516;43.570;1.448;2022-09-28T09:11:16;98890.28;;;17.80;90.11
28306;BME280;7516;43.570;1.448;2022-09-28T09:14:34;98886.41;;;17.88;90.67
28306;BME280;7516;43.570;1.448;2022-09-28T09:17:14;98902.56;;;17.86;88.92
28306;BME280;7516;43.570;1.448;2022-09-28T09:19:51;98903.06;;;17.83;90.66
28306;BME280;7516;43.570;1.448;2022-09-28T09:22:31;98891.06;;;17.81;90.23
28306;BME280;7516;43.570;1.448;2022-09-28T09:25:17;98888.81;;;17.73;90.74
28306;BME280;7516;43.570;1.448;2022-09-28T09:28:06;98898.03;;;17.70;91.20
28306;BME280;7516;43.570;1.448;2022-09-28T09:30:44;98900.38;;;17.66;91.82
28306;BME280;7516;43.570;1.448;2022-09-28T09:33:37;98885.53;;;17.82;90.77
28306;BME280;7516;43.570;1.448;2022-09-28T09:36:16;98890.53;;;17.95;90.62
28306;BME280;7516;43.570;1.448;2022-09-28T09:38:58;98889.88;;;18.05;89.39
28306;BME280;7516;43.570;1.448;2022-09-28T09:41:39;98876.31;;;18.18;87.95
28306;BME280;7516;43.570;1.448;2022-09-28T09:44:26;98881.84;;;18.33;86.86
28306;BME280;7516;43.570;1.448;2022-09-28T09:47:01;98882.56;;;18.46;87.83
28306;BME280;7516;43.570;1.448;2022-09-28T09:49:37;98875.16;;;18.48;86.50
28306;BME280;7516;43.570;1.448;2022-09-28T09:52:11;98878.38;;;18.50;86.46
28306;BME280;7516;43.570;1.448;2022-09-28T09:54:45;98875.16;;;18.48;86.34
28306;BME280;7516;43.570;1.448;2022-09-28T09:57:18;98871.78;;;18.52;86.48
28306;BME280;7516;43.570;1.448;2022-09-28T09:59:49;98872.44;;;18.59;86.83
28306;BME280;7516;43.570;1.448;2022-09-28T10:02:22;98866.88;;;18.61;85.93
28306;BME280;7516;43.570;1.448;2022-09-28T10:04:52;98857.13;;;18.66;86.29
28306;BME280;7516;43.570;1.448;2022-09-28T10:07:24;98865.50;;;18.58;86.87
28306;BME280;7516;43.570;1.448;2022-09-28T10:09:56;98864.66;;;18.36;89.90
28306;BME280;7516;43.570;1.448;2022-09-28T10:12:24;98867.63;;;18.06;94.58
28306;BME280;7516;43.570;1.448;2022-09-28T10:14:53;98870.22;;;18.01;96.54
28306;BME280;7516;43.570;1.448;2022-09-28T10:17:21;98881.94;;;18.05;96.76
28306;BME280;7516;43.570;1.448;2022-09-28T10:19:53;98867.88;;;18.04;97.45
28306;BME280;7516;43.570;1.448;2022-09-28T10:22:24;98870.03;;;18.08;97.50
28306;BME280;7516;43.570;1.448;2022-09-28T10:24:54;98863.97;;;17.62;100.00
28306;BME280;7516;43.570;1.448;2022-09-28T10:27:25;98863.50;;;17.37;100.00
28306;BME280;7516;43.570;1.448;2022-09-28T10:29:58;98853.25;;;17.00;100.00
28306;BME280;7516;43.570;1.448;2022-09-28T10:32:35;98851.19;;;17.02;100.00
28306;BME280;7516;43.570;1.448;2022-09-28T10:35:21;98851.69;;;17.16;100.00
28306;BME280;7516;43.570;1.448;2022-09-28T10:37:52;98850.63;;;17.28;100.00
28306;BME280;7516;43.570;1.448;2022-09-28T10:40:38;98850.06;;;17.26;100.00
28306;BME280;7516;43.570;1.448;2022-09-28T10:43:19;98840.00;;;17.12;100.00
28306;BME280;7516;43.570;1.448;2022-09-28T10:45:59;98845.44;;;17.05;100.00
28306;BME280;7516;43.570;1.448;2022-09-28T10:48:29;98837.38;;;17.00;100.00
28306;BME280;7516;43.570;1.448;2022-09-28T10:51:03;98835.69;;;16.94;100.00
28306;BME280;7516;43.570;1.448;2022-09-28T10:53:32;98829.94;;;16.97;100.00
28306;BME280;7516;43.570;1.448;2022-09-28T10:56:03;98843.16;;;16.97;100.00
28306;BME280;7516;43.570;1.448;2022-09-28T10:58:36;98850.53;;;16.95;100.00
28306;BME280;7516;43.570;1.448;2022-09-28T11:01:09;98837.38;;;17.00;100.00
28306;BME280;7516;43.570;1.448;2022-09-28T11:03:49;98839.44;;;16.98;100.00
28306;BME280;7516;43.570;1.448;2022-09-28T11:06:24;98843.41;;;16.84;100.00
28306;BME280;7516;43.570;1.448;2022-09-28T11:08:53;98834.22;;;16.75;100.00
28306;BME280;7516;43.570;1.448;2022-09-28T11:11:23;98849.19;;;16.58;100.00
28306;BME280;7516;43.570;1.448;2022-09-28T11:13:52;98829.06;;;16.45;100.00
28306;BME280;7516;43.570;1.448;2022-09-28T11:16:26;98824.09;;;16.60;100.00
28306;BME280;7516;43.570;1.448;2022-09-28T11:18:55;98818.81;;;16.72;100.00
28306;BME280;7516;43.570;1.448;2022-09-28T11:21:25;98820.41;;;16.73;100.00
28306;BME280;7516;43.570;1.448;2022-09-28T11:24:04;98813.50;;;16.72;100.00
28306;BME280;7516;43.570;1.448;2022-09-28T11:26:37;98808.91;;;16.79;100.00
28306;BME280;7516;43.570;1.448;2022-09-28T11:29:18;98802.53;;;16.91;100.00
28306;BME280;7516;43.570;1.448;2022-09-28T11:31:48;98795.75;;;16.96;100.00
28306;BME280;7516;43.570;1.448;2022-09-28T11:34:21;98792.94;;;17.02;100.00
28306;BME280;7516;43.570;1.448;2022-09-28T11:37:13;98801.16;;;17.17;100.00
28306;BME280;7516;43.570;1.448;2022-09-28T11:39:50;98788.72;;;17.18;100.00
28306;BME280;7516;43.570;1.448;2022-09-28T11:42:29;98782.16;;;17.20;100.00
28306;BME280;7516;43.570;1.448;2022-09-28T11:45:08;98787.69;;;17.19;100.00
28306;BME280;7516;43.570;1.448;2022-09-28T11:47:55;98788.03;;;17.22;100.00
28306;BME280;7516;43.570;1.448;2022-09-28T11:50:34;98771.09;;;17.23;100.00
28306;BME280;7516;43.570;1.448;2022-09-28T11:53:23;98775.97;;;17.15;100.00
28306;BME280;7516;43.570;1.448;2022-09-28T11:55:57;98767.72;;;17.28;100.00
28306;BME280;7516;43.570;1.448;2022-09-28T11:58:30;98764.63;;;17.31;100.00
28306;BME280;7516;43.570;1.448;2022-09-28T12:01:03;98751.13;;;17.33;100.00
28306;BME280;7516;43.570;1.448;2022-09-28T12:03:39;98750.16;;;17.39;100.00
28306;BME280;7516;43.570;1.448;2022-09-28T12:06:12;98748.56;;;17.38;100.00
28306;BME280;7516;43.570;1.448;2022-09-28T12:08:46;98747.13;;;17.47;100.00
28306;BME280;7516;43.570;1.448;2022-09-28T12:11:20;98742.47;;;17.54;100.00
28306;BME280;7516;43.570;1.448;2022-09-28T12:13:51;98750.84;;;17.62;100.00
28306;BME280;7516;43.570;1.448;2022-09-28T12:16:22;98746.78;;;17.60;100.00
28306;BME280;7516;43.570;1.448;2022-09-28T12:18:55;98748.91;;;17.58;100.00
28306;BME280;7516;43.570;1.448;2022-09-28T12:21:43;98751.94;;;17.50;100.00
28306;BME280;7516;43.570;1.448;2022-09-28T12:24:17;98746.66;;;17.50;100.00
28306;BME280;7516;43.570;1.448;2022-09-28T12:26:50;98746.56;;;17.45;100.00
28306;BME280;7516;43.570;1.448;2022-09-28T12:29:21;98746.31;;;17.46;100.00
28306;BME280;7516;43.570;1.448;2022-09-28T12:31:58;98745.44;;;17.41;100.00
28306;BME280;7516;43.570;1.448;2022-09-28T12:34:29;98753.34;;;17.24;100.00
28306;BME280;7516;43.570;1.448;2022-09-28T12:37:07;98734.06;;;16.95;100.00
28306;BME280;7516;43.570;1.448;2022-09-28T12:39:47;98731.63;;;16.93;100.00
28306;BME280;7516;43.570;1.448;2022-09-28T12:42:32;98736.94;;;16.93;100.00
28306;BME280;7516;43.570;1.448;2022-09-28T12:45:25;98745.63;;;17.06;100.00
28306;BME280;7516;43.570;1.448;2022-09-28T12:51:02;98723.56;;;17.34;100.00
28306;BME280;7516;43.570;1.448;2022-09-28T12:53:47;98718.28;;;17.34;100.00
28306;BME280;7516;43.570;1.448;2022-09-28T12:56:23;98718.69;;;17.42;100.00
28306;BME280;7516;43.570;1.448;2022-09-28T12:59:02;98725.75;;;17.37;100.00
28306;BME280;7516;43.570;1.448;2022-09-28T13:01:52;98705.94;;;17.56;100.00
28306;BME280;7516;43.570;1.448;2022-09-28T13:04:47;98713.72;;;17.79;100.00
28306;BME280;7516;43.570;1.448;2022-09-28T13:07:26;98712.13;;;17.78;100.00
28306;BME280;7516;43.570;1.448;2022-09-28T13:10:06;98723.84;;;17.82;98.23
28306;BME280;7516;43.570;1.448;2022-09-28T13:12:47;98727.91;;;18.07;98.36
28306;BME280;7516;43.570;1.448;2022-09-28T13:15:43;98705.91;;;18.28;94.61
28306;BME280;7516;43.570;1.448;2022-09-28T13:18:20;98704.75;;;18.62;94.02
28306;BME280;7516;43.570;1.448;2022-09-28T13:21:15;98684.84;;;18.65;90.99
28306;BME280;7516;43.570;1.448;2022-09-28T13:23:46;98729.72;;;18.66;89.20
28306;BME280;7516;43.570;1.448;2022-09-28T13:26:23;98719.94;;;18.50;84.58
28306;BME280;7516;43.570;1.448;2022-09-28T13:28:57;98688.31;;;18.43;83.73
28306;BME280;7516;43.570;1.448;2022-09-28T13:31:31;98703.97;;;18.45;85.05
28306;BME280;7516;43.570;1.448;2022-09-28T13:34:01;98681.50;;;18.53;84.49
28306;BME280;7516;43.570;1.448;2022-09-28T13:36:41;98690.75;;;18.50;84.64
28306;BME280;7516;43.570;1.448;2022-09-28T13:39:35;98685.03;;;18.58;82.19
28306;BME280;7516;43.570;1.448;2022-09-28T13:42:05;98712.84;;;18.77;82.32